Time;durP1;ratioP1;P1;durP2;ratioP2;P2;SDS_P1;SDS_P2;PMS_P1;PMS_P2;Temp;Humidity;BMP_temperature;BMP_pressure;BME280_temperature;BME280_humidity;BME280_pressure;Samples;Min_cycle;Max_cycle;Signal;HPM_P1;HPM_P2
2023/11/06 00:01:11;;;;;;;1.40;0.50;;;;;;;10.12;81.26;96724.40;224411;1292;22575;-80
2023/11/06 00:06:15;;;;;;;1.20;0.70;;;;;;;10.09;81.43;96729.25;224158;1292;22555;-80
2023/11/06 00:11:19;;;;;;;0.90;0.80;;;;;;;10.11;81.55;96744.02;224475;1293;22694;-80
2023/11/06 00:16:23;;;;;;;0.70;0.70;;;;;;;10.14;81.46;96760.65;224411;1292;24947;-80
2023/11/06 00:21:38;;;;;;;0.80;0.80;;;;;;;10.17;81.47;96775.35;224381;1291;24799;-80
2023/11/06 00:26:45;;;;;;;1.60;0.80;;;;;;;10.21;81.36;96784.67;224527;1293;22571;-79
2023/11/06 00:31:52;;;;;;;1.00;0.60;;;;;;;10.24;81.24;96795.02;224217;1285;22572;-80
2023/11/06 00:36:55;;;;;;;0.70;0.50;;;;;;;10.26;81.30;96803.23;224411;1293;22578;-80
2023/11/06 00:41:58;;;;;;;1.00;0.60;;;;;;;10.28;81.20;96812.13;224302;1292;22571;-80
2023/11/06 00:47:00;;;;;;;2.40;0.50;;;;;;;10.31;81.01;96821.65;224420;1292;22577;-80
2023/11/06 00:52:05;;;;;;;2.00;0.60;;;;;;;10.35;80.95;96831.56;224420;1293;22627;-80
2023/11/06 00:57:11;;;;;;;1.40;0.70;;;;;;;10.36;80.90;96842.67;224437;1293;22553;-79
2023/11/06 01:02:13;;;;;;;0.70;0.60;;;;;;;10.36;80.76;96848.95;224436;1292;22575;-80
2023/11/06 01:07:16;;;;;;;1.30;0.50;;;;;;;10.35;80.70;96843.96;224296;1293;25326;-80
2023/11/06 01:12:30;;;;;;;;;;;;;;;;;;;;;
2023/11/06 01:17:38;;;;;;;0.30;0.30;;;;;;;10.30;80.66;96857.09;224459;1289;22567;-80
2023/11/06 01:23:27;;;;;;;0.90;0.60;;;;;;;10.24;80.60;96872.13;224533;1293;22566;-80
2023/11/06 01:28:30;;;;;;;1.20;0.50;;;;;;;10.22;80.59;96878.28;224395;1292;24234;-80
2023/11/06 01:33:54;;;;;;;0.60;0.40;;;;;;;10.21;80.73;96890.81;224496;1292;22551;-80
2023/11/06 01:38:57;;;;;;;0.40;0.30;;;;;;;10.18;80.65;96907.00;224459;1292;22604;-80
2023/11/06 01:44:02;;;;;;;0.30;0.20;;;;;;;10.18;80.35;96917.79;220448;1293;5391691;-80
2023/11/06 01:49:07;;;;;;;0.70;0.20;;;;;;;10.18;80.12;96927.55;224508;1289;22607;-80
2023/11/06 01:54:13;;;;;;;0.30;0.30;;;;;;;10.19;79.97;96935.54;224478;1292;25220;-80
2023/11/06 01:59:17;;;;;;;1.00;0.20;;;;;;;10.20;79.99;96953.88;224209;1291;22579;-80
2023/11/06 02:04:30;;;;;;;1.30;0.30;;;;;;;10.20;79.71;96969.55;224488;1292;22585;-80
2023/11/06 02:09:32;;;;;;;0.30;0.20;;;;;;;10.20;79.66;96977.73;224450;1289;22611;-80
2023/11/06 02:14:55;;;;;;;0.40;0.20;;;;;;;10.21;79.68;96991.75;224494;1292;22607;-79
2023/11/06 02:19:59;;;;;;;0.30;0.30;;;;;;;10.22;79.36;97005.45;224149;1293;22642;-80
2023/11/06 02:25:06;;;;;;;0.80;0.30;;;;;;;10.23;79.26;97012.20;224530;1289;23060;-80
2023/11/06 02:30:10;;;;;;;0.20;0.20;;;;;;;10.19;79.17;97021.97;224549;1289;22567;-80
2023/11/06 02:35:12;;;;;;;0.10;0.10;;;;;;;10.13;79.14;97039.38;224307;1292;22562;-80
2023/11/06 02:40:15;;;;;;;0.80;0.20;;;;;;;10.04;79.14;97050.68;224534;1289;22581;-79
2023/11/06 02:45:17;;;;;;;0.40;0.20;;;;;;;9.94;78.88;97069.11;224416;1292;22562;-80
2023/11/06 02:50:21;;;;;;;0.30;0.20;;;;;;;9.81;79.17;97080.97;224432;1292;22559;-81
2023/11/06 02:55:24;;;;;;;0.70;0.40;;;;;;;9.69;79.15;97087.71;224419;1293;22562;-80
2023/11/06 03:00:26;;;;;;;0.30;0.30;;;;;;;9.57;79.29;97101.35;224428;1291;22552;-80
2023/11/06 03:05:31;;;;;;;0.50;0.20;;;;;;;9.47;79.42;97108.16;224452;1292;22649;-81
2023/11/06 03:10:34;;;;;;;0.20;0.20;;;;;;;9.41;79.53;97127.02;224499;1293;22558;-81
2023/11/06 03:15:46;;;;;;;2.10;0.40;;;;;;;9.39;79.66;97136.77;224397;1293;22587;-79
2023/11/06 03:20:48;;;;;;;0.40;0.10;;;;;;;9.39;79.53;97145.00;224393;1292;22555;-80
2023/11/06 03:26:12;;;;;;;0.30;0.30;;;;;;;9.34;79.33;97150.75;224410;1293;22566;-80
2023/11/06 03:31:15;;;;;;;0.60;0.40;;;;;;;9.26;79.01;97162.05;224417;1292;22585;-79
2023/11/06 03:36:17;;;;;;;0.50;0.40;;;;;;;9.19;78.95;97173.08;224446;1293;22559;-79
2023/11/06 03:41:20;;;;;;;1.40;0.20;;;;;;;9.14;79.03;97181.84;224431;1293;22573;-79
2023/11/06 03:46:23;;;;;;;0.30;0.30;;;;;;;9.07;78.75;97188.15;224404;1293;22581;-79
2023/11/06 03:51:25;;;;;;;0.30;0.30;;;;;;;8.99;78.57;97201.77;224527;1289;22573;-80
2023/11/06 03:56:29;;;;;;;0.50;0.40;;;;;;;8.90;78.21;97212.30;224446;1293;22567;-79
2023/11/06 04:01:35;;;;;;;1.20;0.40;;;;;;;8.83;78.02;97225.89;224527;1293;22566;-80
2023/11/06 04:06:37;;;;;;;2.00;0.50;;;;;;;8.76;78.03;97233.80;224215;1292;22701;-81
2023/11/06 04:11:40;;;;;;;0.40;0.40;;;;;;;8.70;77.97;97242.80;224474;1289;22567;-78
2023/11/06 04:16:46;;;;;;;1.40;0.50;;;;;;;8.67;77.78;97245.09;224360;1293;22935;-80
2023/11/06 04:21:48;;;;;;;1.00;0.40;;;;;;;8.62;77.81;97250.10;224506;1292;22656;-80
2023/11/06 04:26:55;;;;;;;3.60;1.70;;;;;;;8.59;77.73;97257.27;224383;1292;22555;-79
2023/11/06 04:32:01;;;;;;;0.90;0.40;;;;;;;8.55;77.79;97272.03;224486;1292;22555;-79
2023/11/06 04:37:05;;;;;;;0.90;0.50;;;;;;;8.48;78.02;97279.91;224477;1289;22559;-80
2023/11/06 04:42:36;;;;;;;0.90;0.40;;;;;;;8.46;77.96;97285.10;224414;1292;22546;-80
2023/11/06 04:47:40;;;;;;;1.30;0.50;;;;;;;8.41;77.90;97291.27;224550;1290;22639;-80
2023/11/06 04:52:43;;;;;;;2.40;0.50;;;;;;;8.39;77.99;97297.23;224510;1292;22575;-79
2023/11/06 04:57:45;;;;;;;1.00;0.60;;;;;;;8.34;77.64;97304.23;224504;1292;22577;-80
2023/11/06 05:02:48;;;;;;;2.50;0.60;;;;;;;8.27;77.59;97312.71;224178;1292;22558;-80
2023/11/06 05:07:52;;;;;;;2.00;0.50;;;;;;;8.22;78.14;97318.31;224422;1292;22627;-79
2023/11/06 05:12:55;;;;;;;1.70;0.70;;;;;;;8.15;78.24;97317.79;224286;1293;22695;-80
2023/11/06 05:17:57;;;;;;;1.10;0.50;;;;;;;8.14;78.22;97322.16;224520;1292;25957;-80
2023/11/06 05:23:00;;;;;;;0.90;0.70;;;;;;;8.14;78.20;97325.64;224507;1292;22709;-80
2023/11/06 05:28:04;;;;;;;2.20;0.70;;;;;;;8.16;78.38;97337.36;224442;1292;22579;-79
2023/11/06 05:33:06;;;;;;;1.00;0.50;;;;;;;8.18;78.00;97349.52;224559;1292;22563;-80
2023/11/06 05:38:10;;;;;;;0.90;0.60;;;;;;;8.17;78.13;97355.33;224552;1293;22554;-80
2023/11/06 05:43:12;;;;;;;1.10;0.60;;;;;;;8.17;77.98;97365.48;224511;1292;22567;-79
2023/11/06 05:48:15;;;;;;;1.50;0.60;;;;;;;8.21;78.47;97371.70;224437;1292;23603;-78
2023/11/06 05:53:18;;;;;;;1.40;0.70;;;;;;;8.29;78.05;97379.95;224285;1293;22564;-82
2023/11/06 05:58:25;;;;;;;1.50;0.90;;;;;;;8.35;77.65;97385.77;224448;1293;22542;-80
2023/11/06 06:03:28;;;;;;;1.60;0.90;;;;;;;8.36;78.00;97400.18;224502;1273;22558;-79
2023/11/06 06:08:30;;;;;;;1.90;1.00;;;;;;;8.40;77.43;97409.00;224456;1286;22641;-79
2023/11/06 06:13:33;;;;;;;1.50;0.60;;;;;;;8.44;77.76;97418.10;224390;1293;22595;-80
2023/11/06 06:18:36;;;;;;;1.30;0.90;;;;;;;8.49;77.44;97429.69;224477;1286;22574;-79
2023/11/06 06:23:41;;;;;;;1.80;0.80;;;;;;;8.57;77.34;97444.16;224522;1292;22533;-80
2023/11/06 06:28:43;;;;;;;2.90;1.00;;;;;;;8.66;77.06;97451.42;224565;1292;22558;-80
2023/11/06 06:33:45;;;;;;;0.90;0.60;;;;;;;8.75;77.30;97463.02;224402;1293;22595;-79
2023/11/06 06:38:49;;;;;;;3.80;0.90;;;;;;;8.84;77.07;97478.38;224392;1292;22594;-80
2023/11/06 06:43:53;;;;;;;2.70;0.80;;;;;;;8.96;76.70;97489.91;224528;1292;22569;-81
2023/11/06 06:48:56;;;;;;;2.00;0.60;;;;;;;9.05;76.37;97500.98;224280;1285;22577;-81
2023/11/06 06:54:03;;;;;;;2.10;1.00;;;;;;;9.14;76.43;97513.80;224147;1286;22563;-85
2023/11/06 06:59:06;;;;;;;2.90;1.00;;;;;;;9.23;76.22;97521.24;224147;1283;24812;-83
2023/11/06 07:04:12;;;;;;;1.70;1.10;;;;;;;9.29;76.23;97529.45;224131;1284;22559;-83
2023/11/06 07:09:15;;;;;;;2.40;1.60;;;;;;;9.35;76.23;97536.72;224092;1270;23355;-82
2023/11/06 07:14:28;;;;;;;2.80;1.50;;;;;;;9.43;75.96;97541.46;223786;1273;25159;-82
2023/11/06 07:19:34;;;;;;;3.30;1.10;;;;;;;9.51;76.14;97547.17;223975;1282;22696;-83
2023/11/06 07:24:36;;;;;;;2.70;1.10;;;;;;;9.57;76.17;97550.60;223890;1289;22586;-82
2023/11/06 07:29:50;;;;;;;2.60;1.20;;;;;;;9.64;76.17;97551.57;224045;1287;22866;-82
2023/11/06 07:34:55;;;;;;;3.40;1.10;;;;;;;9.64;76.27;97558.39;223944;1286;24468;-83
2023/11/06 07:40:07;;;;;;;2.20;1.20;;;;;;;9.60;76.13;97566.48;223844;1284;22583;-83
2023/11/06 07:45:09;;;;;;;1.60;0.90;;;;;;;9.66;76.46;97576.33;223994;1286;22573;-85
2023/11/06 07:50:23;;;;;;;4.90;1.30;;;;;;;9.74;76.31;97590.79;223972;1285;22574;-82
2023/11/06 07:55:28;;;;;;;1.60;1.10;;;;;;;9.84;76.31;97598.19;223797;1286;22574;-84
2023/11/06 08:00:31;;;;;;;1.80;1.20;;;;;;;10.00;76.17;97618.88;224054;1292;22579;-82
2023/11/06 08:06:05;;;;;;;1.80;1.10;;;;;;;10.17;75.93;97629.94;224590;1292;22643;-86
2023/11/06 08:11:21;;;;;;;1.40;0.90;;;;;;;10.40;75.75;97629.10;224411;1292;22555;-81
2023/11/06 08:16:31;;;;;;;3.80;1.00;;;;;;;10.72;75.03;97646.36;224257;1286;22587;-83
2023/11/06 08:21:34;;;;;;;1.00;0.60;;;;;;;10.95;74.14;97647.61;224184;1286;22564;-81
2023/11/06 08:26:46;;;;;;;1.00;0.70;;;;;;;11.10;73.87;97652.39;224262;1286;22545;-85
2023/11/06 08:31:53;;;;;;;1.30;0.60;;;;;;;11.24;73.16;97657.84;224414;1286;22488;-86
2023/11/06 08:37:15;;;;;;;2.10;0.50;;;;;;;11.46;72.56;97667.81;224090;1286;22505;-81
2023/11/06 08:42:39;;;;;;;;;;;;;;;;;;;;;
2023/11/06 08:48:00;;;;;;;2.00;0.80;;;;;;;11.60;71.82;97682.62;224118;1287;22574;-84
2023/11/06 08:53:12;;;;;;;1.50;0.90;;;;;;;11.61;71.96;97688.55;223993;1286;22574;-84
2023/11/06 08:58:52;;;;;;;1.10;0.60;;;;;;;11.64;71.44;97702.52;224246;1291;24583;-84
2023/11/06 09:03:55;;;;;;;6.70;1.00;;;;;;;11.66;71.16;97705.73;224127;1286;22605;-83
2023/11/06 09:08:58;;;;;;;3.90;1.00;;;;;;;11.69;71.12;97710.50;224173;1286;22672;-84
2023/11/06 09:14:15;;;;;;;2.50;0.80;;;;;;;11.75;70.79;97718.25;223943;1273;22571;-76
2023/11/06 09:20:04;;;;;;;1.20;0.60;;;;;;;11.87;71.40;97729.40;224091;1292;24244;-85
2023/11/06 09:25:17;;;;;;;1.40;0.70;;;;;;;12.19;70.88;97730.59;223647;1289;22560;-85
2023/11/06 09:31:04;;;;;;;1.70;0.80;;;;;;;12.28;69.51;97738.42;224097;1286;23324;-83
2023/11/06 09:36:41;;;;;;;2.10;0.90;;;;;;;12.27;69.89;97747.23;224214;1291;22587;-82
2023/11/06 09:41:59;;;;;;;2.60;0.60;;;;;;;12.29;69.95;97760.33;224116;1291;25840;-82
2023/11/06 09:47:21;;;;;;;2.00;0.70;;;;;;;12.27;69.15;97766.02;224222;1291;22617;-82
2023/11/06 09:53:01;;;;;;;5.30;1.00;;;;;;;12.46;69.95;97761.85;224204;1285;22580;-82
2023/11/06 09:59:00;;;;;;;2.00;0.80;;;;;;;12.50;69.47;97753.56;224469;1291;22592;-81
2023/11/06 10:04:45;;;;;;;1.00;0.60;;;;;;;12.39;69.37;97761.13;224601;1291;22559;-80
2023/11/06 10:10:35;;;;;;;5.00;0.70;;;;;;;12.34;69.36;97765.02;224577;1287;22670;-82
2023/11/06 10:15:48;;;;;;;3.70;0.80;;;;;;;12.45;69.35;97766.44;224203;1289;22577;-81
2023/11/06 10:21:12;;;;;;;1.20;0.50;;;;;;;12.45;69.14;97766.95;224363;1291;22744;-83
2023/11/06 10:27:07;;;;;;;;;;;;;;;;;;;;;
2023/11/06 10:33:30;;;;;;;1.80;0.60;;;;;;;12.27;68.65;97775.80;224548;1277;22560;-82
2023/11/06 10:39:18;;;;;;;2.60;0.80;;;;;;;12.20;68.77;97784.34;224507;1284;22603;-80
2023/11/06 10:44:23;;;;;;;5.90;1.20;;;;;;;12.31;69.04;97784.22;224046;1286;22576;-80
2023/11/06 10:49:42;;;;;;;2.20;0.60;;;;;;;12.44;68.58;97791.89;224131;1280;24246;-79
2023/11/06 10:54:56;;;;;;;;;;;;;;;12.45;68.36;97802.35;224405;1280;22568;-81
2023/11/06 11:00:11;;;;;;;2.20;0.70;;;;;;;12.50;68.23;97806.06;224237;1286;22985;-80
2023/11/06 11:05:15;;;;;;;1.50;0.60;;;;;;;12.64;68.74;97805.66;223787;1283;22581;-80
2023/11/06 11:10:21;;;;;;;1.50;0.50;;;;;;;12.71;67.65;97806.06;223585;1290;22925;-78
2023/11/06 11:15:26;;;;;;;2.70;0.90;;;;;;;12.70;67.62;97803.70;223731;1286;22559;-79
2023/11/06 11:21:10;;;;;;;1.20;0.40;;;;;;;12.72;67.99;97809.32;224346;1290;22563;-80
2023/11/06 11:26:14;;;;;;;4.90;0.70;;;;;;;12.69;67.74;97803.63;222755;1292;22647;-78
2023/11/06 11:31:44;;;;;;;3.50;0.80;;;;;;;12.60;67.66;97803.77;223868;1283;22567;-77
2023/11/06 11:36:49;;;;;;;1.70;0.60;;;;;;;12.75;68.09;97803.52;224183;1270;22567;-78
2023/11/06 11:42:52;;;;;;;;;;;;;;;;;;;;;
2023/11/06 11:47:56;;;;;;;2.10;0.80;;;;;;;12.99;66.95;97808.27;223216;1289;25434;-76
2023/11/06 11:52:59;;;;;;;3.40;0.70;;;;;;;13.05;66.76;97810.81;223334;1282;22684;-78
2023/11/06 11:58:07;;;;;;;2.70;0.90;;;;;;;13.09;66.63;97818.27;223144;1295;25397;-78
2023/11/06 12:03:16;;;;;;;2.30;0.80;;;;;;;13.10;66.19;97826.98;223340;1273;22640;-81
2023/11/06 12:08:21;;;;;;;2.80;0.70;;;;;;;13.07;66.48;97831.95;223106;1296;22573;-79
2023/11/06 12:13:34;;;;;;;2.70;0.80;;;;;;;12.98;65.83;97831.24;223213;1295;22582;-79
2023/11/06 12:18:55;;;;;;;1.90;0.90;;;;;;;12.93;65.75;97838.89;223706;1276;22568;-80
2023/11/06 12:24:07;;;;;;;3.80;1.10;;;;;;;12.91;66.13;97843.80;224087;1283;22737;-80
2023/11/06 12:29:10;;;;;;;3.00;0.70;;;;;;;12.89;65.85;97841.33;224007;1286;22588;-80
2023/11/06 12:34:22;;;;;;;0.80;0.50;;;;;;;12.80;66.17;97845.45;223904;1283;22702;-80
2023/11/06 12:39:33;;;;;;;2.00;0.60;;;;;;;12.66;66.13;97855.06;224406;1280;22554;-82
2023/11/06 12:44:38;;;;;;;0.90;0.50;;;;;;;12.49;66.66;97865.41;224254;1276;22559;-83
2023/11/06 12:49:50;;;;;;;2.00;0.80;;;;;;;12.45;67.32;97867.93;224253;1284;22584;-82
2023/11/06 12:54:55;;;;;;;1.30;0.40;;;;;;;12.41;67.23;97881.09;224098;1289;22569;-83
2023/11/06 12:59:59;;;;;;;3.30;0.50;;;;;;;12.42;67.44;97880.84;224179;1289;22550;-82
2023/11/06 13:05:04;;;;;;;2.00;0.80;;;;;;;12.43;67.36;97891.18;224149;1273;22594;-81
2023/11/06 13:10:10;;;;;;;15.00;3.20;;;;;;;12.43;67.74;97896.80;224342;1291;22576;-83
2023/11/06 13:15:15;;;;;;;3.50;1.00;;;;;;;12.50;67.81;97903.73;224406;1286;22255;-81
2023/11/06 13:20:37;;;;;;;2.60;0.90;;;;;;;12.56;67.79;97910.27;224337;1286;22621;-81
2023/11/06 13:25:40;;;;;;;3.10;1.90;;;;;;;12.59;68.04;97910.91;224316;1289;22563;-75
2023/11/06 13:30:42;;;;;;;4.00;1.50;;;;;;;12.69;68.35;97912.13;224256;1291;22607;-77
2023/11/06 13:35:47;;;;;;;2.00;0.80;;;;;;;12.95;68.46;97914.21;224168;1270;22832;-78
2023/11/06 13:40:51;;;;;;;2.80;0.90;;;;;;;12.99;67.51;97922.08;224198;1273;22517;-79
2023/11/06 13:45:53;;;;;;;2.90;1.10;;;;;;;12.92;67.85;97926.96;224291;1289;178794;-80
2023/11/06 13:51:20;;;;;;;;;;;;;;;;;;;;;
2023/11/06 13:56:21;;;;;;;0.80;0.60;;;;;;;13.04;66.61;97955.15;224320;1291;25425;-82
2023/11/06 14:01:43;;;;;;;5.40;1.10;;;;;;;12.97;66.65;97962.77;224262;1291;22580;-80
2023/11/06 14:06:48;;;;;;;5.30;1.10;;;;;;;12.89;66.85;97977.73;224310;1270;22578;-78
2023/11/06 14:11:53;;;;;;;2.80;0.90;;;;;;;12.87;67.29;97977.75;223993;1267;22547;-78
2023/11/06 14:16:55;;;;;;;3.20;1.10;;;;;;;12.92;67.37;97977.40;223979;1289;22542;-78
2023/11/06 14:21:59;;;;;;;2.10;0.80;;;;;;;12.97;67.68;97980.48;223862;1285;22571;-78
2023/11/06 14:27:03;;;;;;;3.00;1.30;;;;;;;12.93;67.61;97972.60;224027;1273;22567;-77
2023/11/06 14:32:05;;;;;;;2.40;1.30;;;;;;;12.74;67.18;97976.59;224350;1283;22587;-79
2023/11/06 14:37:10;;;;;;;1.80;0.90;;;;;;;12.47;67.20;97983.08;224313;1286;22554;-78
2023/11/06 14:42:13;;;;;;;1.50;0.70;;;;;;;12.13;67.15;97992.15;224152;1292;23206;-78
2023/11/06 14:47:40;;;;;;;2.40;0.70;;;;;;;11.83;67.30;98002.98;224018;1283;22591;-78
2023/11/06 14:53:08;;;;;;;;;;;;;;;;;;;;;
2023/11/06 14:59:00;;;;;;;9.80;1.60;;;;;;;11.39;68.61;98021.27;224099;1286;24284;-83
2023/11/06 15:04:13;;;;;;;2.20;0.60;;;;;;;11.20;68.81;98029.13;223954;1285;22566;-82
2023/11/06 15:09:21;;;;;;;3.40;0.80;;;;;;;11.09;69.14;98030.48;223638;1292;23911;-82
2023/11/06 15:14:32;;;;;;;2.10;1.00;;;;;;;10.97;69.44;98032.56;223687;1292;23045;-86
2023/11/06 15:19:42;;;;;;;3.60;1.10;;;;;;;10.85;69.88;98036.51;223580;1292;22559;-81
2023/11/06 15:25:16;;;;;;;2.30;0.90;;;;;;;10.74;70.22;98035.67;223867;1290;22559;-80
2023/11/06 15:30:19;;;;;;;1.50;0.90;;;;;;;10.64;70.47;98045.02;224313;1286;22602;-82
2023/11/06 15:35:25;;;;;;;2.50;1.20;;;;;;;10.55;70.86;98063.06;224432;1292;25007;-82
2023/11/06 15:40:28;;;;;;;2.70;1.10;;;;;;;10.49;71.23;98072.64;224427;1288;22584;-81
2023/11/06 15:45:42;;;;;;;3.10;1.40;;;;;;;10.43;71.63;98074.85;224267;1292;25595;-82
2023/11/06 15:50:45;;;;;;;3.10;1.40;;;;;;;10.32;72.19;98072.63;224263;1289;22559;-81
2023/11/06 15:55:54;;;;;;;2.00;1.10;;;;;;;10.20;72.39;98074.25;224453;1289;24247;-82
2023/11/06 16:01:04;;;;;;;3.50;1.90;;;;;;;10.07;73.12;98074.38;224397;1289;25311;-82
2023/11/06 16:06:14;;;;;;;4.90;2.70;;;;;;;9.95;73.49;98079.28;224575;1292;22563;-82
2023/11/06 16:11:26;;;;;;;4.30;2.20;;;;;;;9.85;73.89;98088.88;224489;1292;22566;-82
2023/11/06 16:16:31;;;;;;;4.20;2.40;;;;;;;9.74;74.15;98090.89;224525;1292;22590;-82
2023/11/06 16:21:39;;;;;;;4.80;2.40;;;;;;;9.62;74.65;98102.86;224502;1292;22589;-82
2023/11/06 16:26:50;;;;;;;5.20;2.90;;;;;;;9.51;75.00;98116.22;224565;1293;22563;-81
2023/11/06 16:31:56;;;;;;;4.10;2.50;;;;;;;9.37;75.21;98120.91;224392;1293;22610;-81
2023/11/06 16:37:05;;;;;;;6.40;3.00;;;;;;;9.27;75.43;98134.98;224584;1293;22617;-82
2023/11/06 16:42:18;;;;;;;7.40;3.80;;;;;;;9.20;75.71;98138.95;224482;1292;22569;-81
2023/11/06 16:47:29;;;;;;;9.30;3.70;;;;;;;9.13;75.88;98145.98;224318;1286;22590;-81
2023/11/06 16:52:36;;;;;;;;;;;;;;;9.06;75.92;98146.95;224396;1293;22559;-81
2023/11/06 16:57:50;;;;;;;4.80;2.60;;;;;;;8.98;75.84;98150.55;224475;1283;22559;-81
2023/11/06 17:03:06;;;;;;;5.10;2.80;;;;;;;8.96;76.19;98157.73;224542;1292;22585;-81
2023/11/06 17:08:12;;;;;;;4.00;2.40;;;;;;;8.96;75.89;98162.64;224473;1292;22745;-82
2023/11/06 17:13:23;;;;;;;5.10;2.80;;;;;;;8.89;75.80;98168.77;224349;1292;22605;-82
2023/11/06 17:18:47;;;;;;;6.10;2.80;;;;;;;8.83;75.89;98172.86;224542;1292;22561;-81
2023/11/06 17:23:51;;;;;;;6.70;2.70;;;;;;;8.80;75.87;98175.70;224574;1293;22569;-82
2023/11/06 17:28:54;;;;;;;4.70;2.80;;;;;;;8.72;75.82;98184.90;224119;1292;22567;-83
2023/11/06 17:34:28;;;;;;;5.40;3.10;;;;;;;8.65;75.80;98193.70;224506;1292;22570;-82
2023/11/06 17:39:33;;;;;;;6.50;3.90;;;;;;;8.59;75.79;98192.58;224391;1289;22584;-82
2023/11/06 17:44:50;;;;;;;6.10;4.20;;;;;;;8.56;75.75;98199.46;224554;1293;22562;-82
2023/11/06 17:50:08;;;;;;;6.10;3.50;;;;;;;8.52;75.82;98210.63;224545;1292;22584;-83
2023/11/06 17:55:11;;;;;;;4.10;3.10;;;;;;;8.47;75.59;98214.48;224581;1292;22563;-82
2023/11/06 18:00:14;;;;;;;6.10;3.50;;;;;;;8.45;75.95;98215.69;224515;1293;22562;-81
2023/11/06 18:05:50;;;;;;;7.60;4.10;;;;;;;8.39;75.79;98221.86;224449;1292;22581;-82
2023/11/06 18:10:58;;;;;;;7.50;4.50;;;;;;;8.33;75.61;98222.44;224431;1292;22580;-82
2023/11/06 18:16:11;;;;;;;8.70;4.50;;;;;;;8.22;75.62;98227.77;224465;1292;22585;-83
2023/11/06 18:21:15;;;;;;;9.00;5.30;;;;;;;8.09;76.26;98226.21;224593;1276;22650;-82
2023/11/06 18:26:20;;;;;;;10.60;5.10;;;;;;;7.96;76.26;98229.30;224524;1292;22558;-82
2023/11/06 18:31:26;;;;;;;11.40;5.80;;;;;;;7.85;76.75;98234.35;224390;1292;22587;-83
2023/11/06 18:36:29;;;;;;;12.10;6.20;;;;;;;7.75;76.64;98234.91;224207;1293;22559;-81
2023/11/06 18:41:45;;;;;;;12.00;6.60;;;;;;;7.65;76.94;98235.27;224404;1291;22619;-83
2023/11/06 18:47:07;;;;;;;13.80;8.20;;;;;;;7.54;77.13;98243.34;224361;1292;22546;-83
2023/11/06 18:52:16;;;;;;;14.70;9.70;;;;;;;7.45;77.31;98251.23;224506;1293;24216;-83
2023/11/06 18:57:23;;;;;;;21.50;10.80;;;;;;;7.36;77.40;98252.15;224444;1293;22586;-82
2023/11/06 19:02:28;;;;;;;19.30;11.20;;;;;;;7.26;77.56;98256.10;224156;1293;22627;-83
2023/11/06 19:07:59;;;;;;;21.30;11.30;;;;;;;7.18;77.65;98253.29;223765;1295;22592;-81
2023/11/06 19:13:02;;;;;;;20.20;11.60;;;;;;;7.10;77.76;98261.75;223891;1296;22566;-84
2023/11/06 19:18:05;;;;;;;33.30;20.40;;;;;;;7.01;78.26;98270.61;223809;1296;25280;-86
2023/11/06 19:23:21;;;;;;;27.70;16.30;;;;;;;6.92;77.97;98267.36;223490;1296;22555;-82
2023/11/06 19:28:40;;;;;;;;;;;;;;;;;;;;;
2023/11/06 19:33:43;;;;;;;33.90;21.20;;;;;;;6.71;78.32;98276.70;223790;1296;25335;-82
2023/11/06 19:38:50;;;;;;;38.30;21.20;;;;;;;6.61;78.34;98284.48;224240;1292;22566;-81
2023/11/06 19:44:00;;;;;;;43.00;22.40;;;;;;;6.51;78.72;98291.24;224519;1293;22669;-83
2023/11/06 19:49:08;;;;;;;40.70;22.50;;;;;;;6.43;78.84;98296.05;224170;1292;25747;-83
2023/11/06 19:54:21;;;;;;;40.40;23.40;;;;;;;6.35;79.55;98296.96;224405;1276;22573;-83
2023/11/06 19:59:24;;;;;;;33.90;19.30;;;;;;;6.27;79.42;98296.99;224456;1292;22532;-85
2023/11/06 20:04:46;;;;;;;40.40;22.30;;;;;;;6.22;79.69;98302.45;224469;1292;22548;-83
2023/11/06 20:09:49;;;;;;;41.30;22.90;;;;;;;6.24;80.26;98303.84;224523;1290;22556;-83
2023/11/06 20:14:54;;;;;;;38.60;22.00;;;;;;;6.28;80.10;98299.16;224413;1286;23369;-84
2023/11/06 20:19:57;;;;;;;41.70;24.00;;;;;;;6.30;80.20;98304.66;224531;1289;22550;-84
2023/11/06 20:25:03;;;;;;;47.70;26.00;;;;;;;6.29;80.22;98305.84;224481;1292;25941;-82
2023/11/06 20:30:08;;;;;;;44.30;26.10;;;;;;;6.22;80.21;98312.05;224192;1292;22567;-84
2023/11/06 20:35:13;;;;;;;34.30;21.90;;;;;;;6.15;80.41;98309.95;224263;1292;22546;-84
2023/11/06 20:40:15;;;;;;;40.40;22.60;;;;;;;6.10;81.08;98308.20;224502;1293;22546;-83
2023/11/06 20:45:21;;;;;;;37.10;21.00;;;;;;;6.07;81.14;98305.97;224451;1293;22594;-84
2023/11/06 20:50:34;;;;;;;33.40;18.80;;;;;;;6.03;81.15;98311.42;224174;1293;22560;-82
2023/11/06 20:55:52;;;;;;;33.90;18.10;;;;;;;6.00;81.15;98323.29;224465;1293;22553;-82
2023/11/06 21:01:00;;;;;;;32.70;18.50;;;;;;;5.99;81.44;98324.84;224432;1289;22620;-82
2023/11/06 21:06:05;;;;;;;32.00;17.10;;;;;;;6.01;81.64;98331.55;224409;1292;22567;-82
2023/11/06 21:11:08;;;;;;;30.50;17.70;;;;;;;6.11;82.02;98331.70;224506;1293;22604;-83
2023/11/06 21:16:12;;;;;;;29.60;16.30;;;;;;;6.18;81.83;98328.30;224497;1293;25073;-83
2023/11/06 21:21:17;;;;;;;20.00;11.60;;;;;;;6.22;81.86;98328.55;224428;1288;22564;-83
2023/11/06 21:26:40;;;;;;;19.50;11.20;;;;;;;6.36;82.04;98331.13;223626;1295;22615;-83
2023/11/06 21:32:11;;;;;;;22.20;12.50;;;;;;;6.44;81.60;98332.46;223436;1297;22566;-81
2023/11/06 21:37:16;;;;;;;19.40;10.30;;;;;;;6.47;81.71;98330.91;223471;1297;22582;-83
2023/11/06 21:42:19;;;;;;;20.70;9.50;;;;;;;6.47;81.51;98331.36;223441;1297;22552;-82
2023/11/06 21:47:22;;;;;;;19.70;10.80;;;;;;;6.44;81.93;98336.16;223632;1297;22590;-82
2023/11/06 21:52:34;;;;;;;18.70;10.40;;;;;;;6.47;82.05;98338.29;223612;1288;24187;-83
2023/11/06 21:57:39;;;;;;;19.10;10.60;;;;;;;6.52;82.07;98338.79;224050;1292;22566;-82
2023/11/06 22:02:45;;;;;;;16.10;9.50;;;;;;;6.56;82.16;98337.99;224359;1292;22569;-82
2023/11/06 22:07:58;;;;;;;12.60;7.00;;;;;;;6.58;82.54;98342.58;224257;1293;22563;-83
2023/11/06 22:13:03;;;;;;;10.90;5.30;;;;;;;6.79;82.95;98347.08;224397;1293;22569;-82
2023/11/06 22:18:09;;;;;;;11.40;5.10;;;;;;;7.09;83.14;98361.45;224522;1292;25429;-82
2023/11/06 22:23:23;;;;;;;9.20;5.50;;;;;;;7.24;82.26;98363.09;224614;1289;22591;-81
2023/11/06 22:28:32;;;;;;;10.50;5.90;;;;;;;7.30;82.50;98367.42;224602;1293;22553;-82
2023/11/06 22:33:35;;;;;;;13.00;5.90;;;;;;;7.33;81.96;98372.73;224510;1291;22562;-82
2023/11/06 22:38:42;;;;;;;13.00;6.60;;;;;;;7.33;81.83;98368.09;224510;1293;24021;-82
2023/11/06 22:43:51;;;;;;;15.00;8.50;;;;;;;7.31;81.91;98375.56;224519;1293;22561;-82
2023/11/06 22:49:14;;;;;;;15.80;8.10;;;;;;;7.24;81.62;98380.36;224560;1292;25383;-82
2023/11/06 22:54:24;;;;;;;14.90;7.10;;;;;;;7.18;81.41;98379.75;224561;1289;22599;-81
2023/11/06 22:59:29;;;;;;;15.10;8.10;;;;;;;7.14;81.58;98373.56;224583;1290;22666;-82
2023/11/06 23:04:35;;;;;;;16.70;9.20;;;;;;;7.09;81.60;98382.68;224424;1292;22565;-81
2023/11/06 23:09:44;;;;;;;20.30;9.50;;;;;;;7.06;81.73;98384.57;224569;1292;22634;-82
2023/11/06 23:14:50;;;;;;;14.20;8.30;;;;;;;7.06;81.77;98386.60;224301;1292;25020;-82
2023/11/06 23:19:55;;;;;;;13.40;8.80;;;;;;;7.11;81.86;98390.71;224310;1292;22562;-82
2023/11/06 23:25:15;;;;;;;15.20;9.40;;;;;;;7.17;81.95;98390.98;224252;1292;22551;-83
2023/11/06 23:30:27;;;;;;;16.50;9.20;;;;;;;7.25;82.65;98392.67;224173;1292;22579;-82
2023/11/06 23:35:35;;;;;;;16.00;9.60;;;;;;;7.32;82.46;98388.27;224558;1289;22567;-83
2023/11/06 23:40:42;;;;;;;14.60;8.60;;;;;;;7.37;82.23;98379.76;224536;1292;22563;-83
2023/11/06 23:45:47;;;;;;;13.00;6.40;;;;;;;7.41;82.33;98376.10;224532;1289;22546;-80
2023/11/06 23:50:55;;;;;;;11.00;5.80;;;;;;;7.50;82.46;98378.30;224524;1289;22570;-82
2023/11/06 23:56:03;;;;;;;10.40;5.20;;;;;;;7.56;82.46;98371.65;224473;1292;23800;-81
